Time,TemperatureF,DewpointF,PressureIn,WindDirection,WindDirectionDegrees,WindSpeedMPH,WindSpeedGustMPH,Humidity,HourlyPrecipIn,Conditions,Clouds,dailyrainin,SolarRadiationWatts/m^2,SoftwareType,DateUTC
2013-12-26 00:02:00,9.9,5.5,30.15,West,263,5.8,5.8,82,0.00,RA,,0.00,0.0,WeatherDisplay:10.37,2013-12-26 06:02:00,
2013-12-26 00:07:00,10.0,5.9,30.15,West,269,1.2,1.2,83,0.00,RA,,0.00,0.0,WeatherDisplay:10.37,2013-12-26 06:07:00,
2013-12-26 00:12:00,10.1,6.0,30.15,West,269,0.0,0.0,83,0.00,RA,,0.00,0.0,WeatherDisplay:10.37,2013-12-26 06:12:00,
2013-12-26 00:17:00,10.3,6.2,30.15,West,269,0.0,0.0,83,0.00,OVC,,0.00,0.0,WeatherDisplay:10.37,2013-12-26 06:17:00,
2013-12-26 00:22:00,10.3,5.9,30.15,West,269,0.0,0.0,82,0.00,OVC,,0.00,0.0,WeatherDisplay:10.37,2013-12-26 06:22:00,
2013-12-26 00:27:00,10.4,6.3,30.15,West,269,0.0,0.0,83,0.00,OVC,,0.00,0.0,WeatherDisplay:10.37,2013-12-26 06:27:00,
2013-12-26 00:32:00,10.4,6.3,30.15,West,269,0.0,0.0,83,0.00,OVC,,0.00,0.0,WeatherDisplay:10.37,2013-12-26 06:32:00,
2013-12-26 00:37:00,10.4,6.3,30.14,West,269,0.0,0.0,83,0.00,OVC,,0.00,0.0,WeatherDisplay:10.37,2013-12-26 06:37:00,
2013-12-26 00:42:00,10.5,6.4,30.14,West,269,0.0,0.0,83,0.00,OVC,,0.00,0.0,WeatherDisplay:10.37,2013-12-26 06:42:00,
2013-12-26 00:47:00,10.3,6.2,30.14,West,269,0.0,0.0,83,0.00,OVC,,0.00,0.0,WeatherDisplay:10.37,2013-12-26 06:47:00,
2013-12-26 00:52:00,10.4,6.3,30.14,West,269,0.0,0.0,83,0.00,OVC,,0.00,0.0,WeatherDisplay:10.37,2013-12-26 06:52:00,
2013-12-26 00:57:00,10.4,6.3,30.14,West,269,0.0,0.0,83,0.00,OVC,,0.00,0.0,WeatherDisplay:10.37,2013-12-26 06:57:00,
2013-12-26 01:02:00,10.3,6.2,30.14,West,269,0.0,0.0,83,0.00,OVC,,0.00,0.0,WeatherDisplay:10.37,2013-12-26 07:02:00,
2013-12-26 01:07:00,10.1,6.0,30.15,West,269,0.0,0.0,83,0.00,OVC,,0.00,0.0,WeatherDisplay:10.37,2013-12-26 07:07:00,
2013-12-26 01:12:00,10.0,5.9,30.15,West,269,0.0,0.0,83,0.00,OVC,,0.00,0.0,WeatherDisplay:10.37,2013-12-26 07:12:00,
2013-12-26 01:17:00,10.0,5.9,30.15,West,269,0.0,0.0,83,0.00,OVC,,0.00,0.0,WeatherDisplay:10.37,2013-12-26 07:17:00,
2013-12-26 01:22:00,9.8,5.4,30.15,West,269,0.0,0.0,82,0.00,OVC,,0.00,0.0,WeatherDisplay:10.37,2013-12-26 07:22:00,
2013-12-26 01:27:00,9.2,4.6,30.16,West,269,0.0,0.0,81,0.00,OVC,,0.00,0.0,WeatherDisplay:10.37,2013-12-26 07:27:00,
2013-12-26 01:32:00,8.6,4.2,30.16,West,269,0.0,0.0,82,0.00,OVC,,0.00,0.0,WeatherDisplay:10.37,2013-12-26 07:32:00,
2013-12-26 01:37:00,8.1,3.7,30.16,West,269,0.0,0.0,82,0.00,OVC,,0.00,0.0,WeatherDisplay:10.37,2013-12-26 07:37:00,
2013-12-26 01:42:00,7.7,3.6,30.15,West,269,0.0,0.0,83,0.00,OVC,,0.00,0.0,WeatherDisplay:10.37,2013-12-26 07:42:00,
2013-12-26 01:47:00,7.4,3.3,30.16,West,269,0.0,0.0,83,0.00,OVC,,0.00,0.0,WeatherDisplay:10.37,2013-12-26 07:47:00,
2013-12-26 01:52:00,7.2,3.4,30.16,West,269,0.0,0.0,84,0.00,OVC,,0.00,0.0,WeatherDisplay:10.37,2013-12-26 07:52:00,
2013-12-26 01:57:00,7.2,3.4,30.16,West,269,0.0,0.0,84,0.00,OVC,,0.00,0.0,WeatherDisplay:10.37,2013-12-26 07:57:00,
2013-12-26 02:02:00,7.0,3.4,30.16,West,269,0.0,0.0,85,0.00,OVC,,0.00,0.0,WeatherDisplay:10.37,2013-12-26 08:02:00,
2013-12-26 02:07:00,6.8,3.2,30.15,West,269,0.0,0.0,85,0.00,OVC,,0.00,0.0,WeatherDisplay:10.37,2013-12-26 08:07:00,
2013-12-26 02:12:00,6.7,3.1,30.16,West,269,0.0,0.0,85,0.00,OVC,,0.00,0.0,WeatherDisplay:10.37,2013-12-26 08:12:00,
2013-12-26 02:17:00,6.5,3.0,30.16,West,269,0.0,0.0,85,0.00,OVC,,0.00,0.0,WeatherDisplay:10.37,2013-12-26 08:17:00,
2013-12-26 02:22:00,6.4,2.9,30.17,West,269,0.0,0.0,85,0.00,OVC,,0.00,0.0,WeatherDisplay:10.37,2013-12-26 08:22:00,
2013-12-26 02:27:00,6.2,2.7,30.17,West,269,0.0,0.0,85,0.00,OVC,,0.00,0.0,WeatherDisplay:10.37,2013-12-26 08:27:00,
2013-12-26 02:32:00,6.2,2.7,30.17,West,269,0.0,0.0,85,0.00,OVC,,0.00,0.0,WeatherDisplay:10.37,2013-12-26 08:32:00,
2013-12-26 02:37:00,6.2,2.9,30.17,West,269,0.0,0.0,86,0.00,OVC,,0.00,0.0,WeatherDisplay:10.37,2013-12-26 08:37:00,
2013-12-26 02:42:00,6.2,2.9,30.17,West,269,0.0,0.0,86,0.00,OVC,,0.00,0.0,WeatherDisplay:10.37,2013-12-26 08:42:00,
2013-12-26 02:47:00,6.0,2.5,30.17,West,269,0.0,0.0,85,0.00,OVC,,0.00,0.0,WeatherDisplay:10.37,2013-12-26 08:47:00,
2013-12-26 02:52:00,6.0,2.5,30.17,West,269,0.0,0.0,85,0.00,OVC,,0.00,0.0,WeatherDisplay:10.37,2013-12-26 08:52:00,
2013-12-26 02:57:00,5.9,2.4,30.17,West,269,0.0,0.0,85,0.00,OVC,,0.00,0.0,WeatherDisplay:10.37,2013-12-26 08:57:00,
2013-12-26 03:02:00,5.9,2.4,30.17,West,269,0.0,0.0,85,0.00,OVC,,0.00,0.0,WeatherDisplay:10.37,2013-12-26 09:02:00,
2013-12-26 03:07:00,5.8,2.3,30.17,West,269,0.0,0.0,85,0.00,OVC,,0.00,0.0,WeatherDisplay:10.37,2013-12-26 09:07:00,
2013-12-26 03:12:00,5.7,2.2,30.17,West,269,0.0,0.0,85,0.00,OVC,,0.00,0.0,WeatherDisplay:10.37,2013-12-26 09:12:00,
2013-12-26 03:17:00,5.5,2.0,30.17,West,269,0.0,0.0,85,0.00,OVC,,0.00,0.0,WeatherDisplay:10.37,2013-12-26 09:17:00,
2013-12-26 03:22:00,5.4,1.9,30.17,West,269,0.0,0.0,85,0.00,OVC,,0.00,0.0,WeatherDisplay:10.37,2013-12-26 09:22:00,
2013-12-26 03:27:00,5.3,2.0,30.17,West,269,0.0,0.0,86,0.00,OVC,,0.00,0.0,WeatherDisplay:10.37,2013-12-26 09:27:00,
2013-12-26 03:32:00,5.4,2.1,30.17,West,269,0.0,0.0,86,0.00,OVC,,0.00,0.0,WeatherDisplay:10.37,2013-12-26 09:32:00,
2013-12-26 03:37:00,5.4,2.1,30.16,West,269,0.0,0.0,86,0.00,OVC,,0.00,0.0,WeatherDisplay:10.37,2013-12-26 09:37:00,
2013-12-26 03:42:00,5.5,2.2,30.16,West,269,0.0,0.0,86,0.00,OVC,,0.00,0.0,WeatherDisplay:10.37,2013-12-26 09:42:00,
2013-12-26 03:47:00,5.6,2.3,30.16,West,269,0.0,0.0,86,0.00,OVC,,0.00,0.0,WeatherDisplay:10.37,2013-12-26 09:47:00,
2013-12-26 03:52:00,5.6,2.3,30.16,West,269,0.0,0.0,86,0.00,OVC,,0.00,0.0,WeatherDisplay:10.37,2013-12-26 09:52:00,
2013-12-26 03:58:00,5.6,2.3,30.16,West,269,0.0,0.0,86,0.00,OVC,,0.00,0.0,WeatherDisplay:10.37,2013-12-26 09:58:00,
2013-12-26 04:02:00,5.4,1.9,30.17,West,269,0.0,0.0,85,0.00,OVC,,0.00,0.0,WeatherDisplay:10.37,2013-12-26 10:02:00,
2013-12-26 04:08:00,5.4,2.1,30.16,West,269,0.0,0.0,86,0.00,OVC,,0.00,0.0,WeatherDisplay:10.37,2013-12-26 10:08:00,
2013-12-26 04:13:00,5.3,2.0,30.16,West,269,0.0,0.0,86,0.00,OVC,,0.00,0.0,WeatherDisplay:10.37,2013-12-26 10:13:00,
2013-12-26 04:18:00,5.3,2.0,30.16,West,269,0.0,0.0,86,0.00,OVC,,0.00,0.0,WeatherDisplay:10.37,2013-12-26 10:18:00,
2013-12-26 04:23:00,5.2,1.9,30.17,West,269,0.0,0.0,86,0.00,OVC,,0.00,0.0,WeatherDisplay:10.37,2013-12-26 10:23:00,
2013-12-26 04:28:00,5.3,2.0,30.16,West,269,0.0,0.0,86,0.00,OVC,,0.00,0.0,WeatherDisplay:10.37,2013-12-26 10:28:00,
2013-12-26 04:33:00,5.3,2.0,30.16,West,269,0.0,0.0,86,0.00,OVC,,0.00,0.0,WeatherDisplay:10.37,2013-12-26 10:33:00,
2013-12-26 04:38:00,5.3,2.0,30.17,West,269,0.0,0.0,86,0.00,OVC,,0.00,0.0,WeatherDisplay:10.37,2013-12-26 10:38:00,
2013-12-26 04:43:00,5.3,2.0,30.17,West,269,0.0,0.0,86,0.00,OVC,,0.00,0.0,WeatherDisplay:10.37,2013-12-26 10:43:00,
2013-12-26 04:48:00,5.2,1.9,30.17,West,269,0.0,0.0,86,0.00,OVC,,0.00,0.0,WeatherDisplay:10.37,2013-12-26 10:48:00,
2013-12-26 04:53:00,5.1,1.8,30.17,West,269,0.0,0.0,86,0.00,OVC,,0.00,0.0,WeatherDisplay:10.37,2013-12-26 10:53:00,
2013-12-26 04:58:00,5.1,1.8,30.17,West,269,0.0,0.0,86,0.00,OVC,,0.00,0.0,WeatherDisplay:10.37,2013-12-26 10:58:00,
2013-12-26 05:03:00,5.3,2.0,30.17,West,269,0.0,0.0,86,0.00,OVC,,0.00,0.0,WeatherDisplay:10.37,2013-12-26 11:03:00,
2013-12-26 05:08:00,5.4,2.1,30.17,West,269,0.0,0.0,86,0.00,OVC,,0.00,0.0,WeatherDisplay:10.37,2013-12-26 11:08:00,
2013-12-26 05:13:00,5.6,2.3,30.17,West,269,0.0,0.0,86,0.00,OVC,,0.00,0.0,WeatherDisplay:10.37,2013-12-26 11:13:00,
2013-12-26 05:18:00,5.7,2.4,30.17,West,269,0.0,0.0,86,0.00,OVC,,0.00,0.0,WeatherDisplay:10.37,2013-12-26 11:18:00,
2013-12-26 05:23:00,5.8,2.5,30.18,West,269,0.0,0.0,86,0.00,OVC,,0.00,0.0,WeatherDisplay:10.37,2013-12-26 11:23:00,
2013-12-26 05:28:00,5.9,2.6,30.18,West,269,0.0,0.0,86,0.00,OVC,,0.00,0.0,WeatherDisplay:10.37,2013-12-26 11:28:00,
2013-12-26 05:33:00,6.0,2.7,30.18,West,269,0.0,0.0,86,0.00,OVC,,0.00,0.0,WeatherDisplay:10.37,2013-12-26 11:33:00,
2013-12-26 05:38:00,6.1,2.8,30.17,West,269,0.0,0.0,86,0.00,OVC,,0.00,0.0,WeatherDisplay:10.37,2013-12-26 11:38:00,
2013-12-26 05:43:00,6.3,3.0,30.17,West,269,0.0,0.0,86,0.00,OVC,,0.00,0.0,WeatherDisplay:10.37,2013-12-26 11:43:00,
2013-12-26 05:48:00,6.4,3.1,30.18,West,269,0.0,0.0,86,0.00,OVC,,0.00,0.0,WeatherDisplay:10.37,2013-12-26 11:48:00,
2013-12-26 05:53:00,6.4,3.1,30.18,West,269,0.0,0.0,86,0.00,OVC,,0.00,0.0,WeatherDisplay:10.37,2013-12-26 11:53:00,
2013-12-26 05:58:00,6.4,3.1,30.18,West,269,0.0,0.0,86,0.00,OVC,,0.00,0.0,WeatherDisplay:10.37,2013-12-26 11:58:00,
2013-12-26 06:03:00,6.4,3.1,30.18,West,269,0.0,0.0,86,0.00,OVC,,0.00,0.0,WeatherDisplay:10.37,2013-12-26 12:03:00,
2013-12-26 06:08:00,6.3,3.0,30.18,West,269,0.0,0.0,86,0.00,OVC,,0.00,0.0,WeatherDisplay:10.37,2013-12-26 12:08:00,
2013-12-26 06:13:00,6.3,3.0,30.18,West,269,0.0,0.0,86,0.00,OVC,,0.00,0.0,WeatherDisplay:10.37,2013-12-26 12:13:00,
2013-12-26 06:18:00,6.2,2.9,30.18,West,269,0.0,0.0,86,0.00,OVC,,0.00,0.0,WeatherDisplay:10.37,2013-12-26 12:18:00,
2013-12-26 06:23:00,6.1,2.6,30.18,West,269,0.0,0.0,85,0.00,OVC,,0.00,0.0,WeatherDisplay:10.37,2013-12-26 12:23:00,
2013-12-26 06:28:00,6.0,2.7,30.18,West,269,0.0,0.0,86,0.00,OVC,,0.00,0.0,WeatherDisplay:10.37,2013-12-26 12:28:00,
2013-12-26 06:33:00,6.0,2.7,30.18,West,269,0.0,0.0,86,0.00,OVC,,0.00,0.0,WeatherDisplay:10.37,2013-12-26 12:33:00,
2013-12-26 06:39:00,6.1,2.8,30.18,West,269,0.0,0.0,86,0.00,OVC,,0.00,0.0,WeatherDisplay:10.37,2013-12-26 12:39:00,
2013-12-26 06:44:00,6.1,2.8,30.18,West,269,0.0,0.0,86,0.00,OVC,,0.00,0.0,WeatherDisplay:10.37,2013-12-26 12:44:00,
2013-12-26 06:49:00,6.1,2.8,30.19,West,269,0.0,0.0,86,0.00,OVC,,0.00,0.0,WeatherDisplay:10.37,2013-12-26 12:49:00,
2013-12-26 06:54:00,6.0,2.7,30.18,West,269,0.0,0.0,86,0.00,OVC,,0.00,0.0,WeatherDisplay:10.37,2013-12-26 12:54:00,
2013-12-26 06:59:00,6.0,2.7,30.19,West,269,0.0,0.0,86,0.00,OVC,,0.00,0.0,WeatherDisplay:10.37,2013-12-26 12:59:00,
2013-12-26 07:04:00,6.0,2.7,30.19,West,269,0.0,0.0,86,0.00,OVC,,0.00,0.0,WeatherDisplay:10.37,2013-12-26 13:04:00,
2013-12-26 07:09:00,6.1,3.1,30.19,West,269,0.0,0.0,87,0.00,OVC,,0.00,0.0,WeatherDisplay:10.37,2013-12-26 13:09:00,
2013-12-26 07:14:00,6.3,3.3,30.19,West,269,0.0,0.0,87,0.00,OVC,,0.00,0.0,WeatherDisplay:10.37,2013-12-26 13:14:00,
2013-12-26 07:19:00,6.3,3.0,30.19,West,269,0.0,0.0,86,0.00,OVC,,0.00,0.0,WeatherDisplay:10.37,2013-12-26 13:19:00,
2013-12-26 07:24:00,6.3,3.0,30.19,West,269,0.0,0.0,86,0.00,OVC,,0.00,0.0,WeatherDisplay:10.37,2013-12-26 13:24:00,
2013-12-26 07:29:00,6.4,3.1,30.19,West,269,0.0,0.0,86,0.00,OVC,,0.00,0.0,WeatherDisplay:10.37,2013-12-26 13:29:00,
2013-12-26 07:34:00,6.6,3.3,30.19,West,269,0.0,0.0,86,0.00,OVC,,0.00,0.0,WeatherDisplay:10.37,2013-12-26 13:34:00,
2013-12-26 07:39:00,6.6,3.3,30.19,West,269,0.0,0.0,86,0.00,OVC,,0.00,0.0,WeatherDisplay:10.37,2013-12-26 13:39:00,
2013-12-26 07:44:00,6.5,3.0,30.19,West,269,0.0,0.0,85,0.00,OVC,,0.00,0.0,WeatherDisplay:10.37,2013-12-26 13:44:00,
2013-12-26 07:49:00,6.3,2.8,30.19,West,269,0.0,0.0,85,0.00,OVC,,0.00,0.0,WeatherDisplay:10.37,2013-12-26 13:49:00,
2013-12-26 07:54:00,6.0,2.5,30.19,West,269,0.0,0.0,85,0.00,OVC,,0.00,0.0,WeatherDisplay:10.37,2013-12-26 13:54:00,
2013-12-26 07:59:00,5.8,2.3,30.20,West,269,0.0,0.0,85,0.00,OVC,,0.00,0.0,WeatherDisplay:10.37,2013-12-26 13:59:00,
2013-12-26 08:04:00,5.6,2.3,30.20,West,269,0.0,0.0,86,0.00,OVC,,0.00,0.0,WeatherDisplay:10.37,2013-12-26 14:04:00,
2013-12-26 08:09:00,5.6,2.3,30.20,West,269,0.0,0.0,86,0.00,OVC,,0.00,0.0,WeatherDisplay:10.37,2013-12-26 14:09:00,
2013-12-26 08:14:00,5.8,2.5,30.20,West,269,0.0,0.0,86,0.00,OVC,,0.00,5.0,WeatherDisplay:10.37,2013-12-26 14:14:00,
2013-12-26 08:19:00,5.9,2.6,30.20,West,269,0.0,0.0,86,0.00,OVC,,0.00,7.0,WeatherDisplay:10.37,2013-12-26 14:19:00,
2013-12-26 08:24:00,6.1,3.1,30.20,West,269,0.0,0.0,87,0.00,OVC,,0.00,7.0,WeatherDisplay:10.37,2013-12-26 14:24:00,
2013-12-26 08:29:00,6.3,3.3,30.20,West,269,0.0,0.0,87,0.00,OVC,,0.00,7.0,WeatherDisplay:10.37,2013-12-26 14:29:00,
2013-12-26 08:34:00,6.5,3.5,30.20,West,269,0.0,0.0,87,0.00,OVC,,0.00,9.0,WeatherDisplay:10.37,2013-12-26 14:34:00,
2013-12-26 08:39:00,6.9,3.8,30.20,West,269,0.0,0.0,87,0.00,OVC,,0.00,11.0,WeatherDisplay:10.37,2013-12-26 14:39:00,
2013-12-26 08:44:00,7.2,4.1,30.20,West,269,0.0,0.0,87,0.00,OVC,,0.00,11.0,WeatherDisplay:10.37,2013-12-26 14:44:00,
2013-12-26 08:49:00,7.4,4.3,30.20,West,269,0.0,0.0,87,0.00,OVC,,0.00,9.0,WeatherDisplay:10.37,2013-12-26 14:49:00,
2013-12-26 08:54:00,7.7,4.6,30.20,West,269,0.0,0.0,87,0.00,OVC,,0.00,11.0,WeatherDisplay:10.37,2013-12-26 14:54:00,
2013-12-26 08:59:00,8.1,5.0,30.20,West,269,0.0,0.0,87,0.00,OVC,,0.00,12.0,WeatherDisplay:10.37,2013-12-26 14:59:00,
2013-12-26 09:04:00,8.5,5.4,30.21,West,269,0.0,0.0,87,0.00,-SN,,0.00,12.0,WeatherDisplay:10.37,2013-12-26 15:04:00,
2013-12-26 09:09:00,9.0,6.2,30.21,West,269,0.0,0.0,88,0.00,-SN,,0.00,12.0,WeatherDisplay:10.37,2013-12-26 15:09:00,
2013-12-26 09:14:00,9.5,6.4,30.21,West,269,0.0,0.0,87,0.00,-SN,,0.00,14.0,WeatherDisplay:10.37,2013-12-26 15:14:00,
2013-12-26 09:19:00,9.9,6.6,30.21,West,269,0.0,0.0,86,0.00,-SN,,0.00,12.0,WeatherDisplay:10.37,2013-12-26 15:19:00,
2013-12-26 09:24:00,10.3,6.9,30.21,West,269,0.0,0.0,86,0.00,-SN,,0.00,16.0,WeatherDisplay:10.37,2013-12-26 15:24:00,
2013-12-26 09:29:00,10.7,7.3,30.21,West,269,0.0,0.0,86,0.00,-SN,,0.00,18.0,WeatherDisplay:10.37,2013-12-26 15:29:00,
2013-12-26 09:34:00,10.9,7.3,30.21,West,269,0.0,0.0,85,0.00,-SN,,0.00,25.0,WeatherDisplay:10.37,2013-12-26 15:34:00,
2013-12-26 09:39:00,11.2,7.6,30.21,WSW,244,1.2,0.0,85,0.00,-SN,,0.00,28.0,WeatherDisplay:10.37,2013-12-26 15:39:00,
2013-12-26 09:44:00,11.6,8.0,30.22,WSW,244,0.0,0.0,85,0.00,-SN,,0.00,28.0,WeatherDisplay:10.37,2013-12-26 15:44:00,
2013-12-26 09:49:00,11.9,8.0,30.21,SSE,163,1.2,0.0,84,0.00,-SN,,0.00,28.0,WeatherDisplay:10.37,2013-12-26 15:49:00,
2013-12-26 09:54:00,12.1,8.2,30.22,SSE,163,1.2,1.2,84,0.00,-SN,,0.00,30.0,WeatherDisplay:10.37,2013-12-26 15:54:00,
2013-12-26 09:59:00,12.3,8.1,30.22,SSE,163,1.2,0.0,83,0.00,-SN,,0.00,33.0,WeatherDisplay:10.37,2013-12-26 15:59:00,
2013-12-26 10:04:00,12.5,8.0,30.22,SSE,165,1.0,1.0,82,0.00,-SN,,0.00,39.0,WeatherDisplay:10.37,2013-12-26 16:04:00,
2013-12-26 10:09:00,12.6,8.1,30.22,SSE,165,1.2,1.2,82,0.00,-SN,,0.00,26.0,WeatherDisplay:10.37,2013-12-26 16:09:00,
2013-12-26 10:14:00,12.9,8.7,30.23,SSE,165,0.0,0.0,83,0.00,-SN,,0.00,23.0,WeatherDisplay:10.37,2013-12-26 16:14:00,
2013-12-26 10:19:00,13.0,8.5,30.23,SSE,165,0.0,0.0,82,0.00,-SN,,0.00,30.0,WeatherDisplay:10.37,2013-12-26 16:19:00,
2013-12-26 10:24:00,13.1,8.6,30.22,SSE,165,0.0,0.0,82,0.00,-SN,,0.00,26.0,WeatherDisplay:10.37,2013-12-26 16:24:00,
2013-12-26 10:29:00,13.1,8.6,30.22,SSW,205,2.3,2.3,82,0.00,-SN,,0.00,26.0,WeatherDisplay:10.37,2013-12-26 16:29:00,
2013-12-26 10:34:00,13.3,9.1,30.22,SSW,205,0.0,0.0,83,0.00,-SN,,0.00,37.0,WeatherDisplay:10.37,2013-12-26 16:34:00,
2013-12-26 10:39:00,13.7,9.5,30.22,SSW,205,0.0,0.0,83,0.00,-SN,,0.00,46.0,WeatherDisplay:10.37,2013-12-26 16:39:00,
2013-12-26 10:44:00,14.0,9.5,30.22,SE,145,2.3,2.3,82,0.00,-SN,,0.00,53.0,WeatherDisplay:10.37,2013-12-26 16:44:00,
2013-12-26 10:49:00,14.2,9.7,30.22,WSW,255,1.2,1.2,82,0.00,-SN,,0.00,54.0,WeatherDisplay:10.37,2013-12-26 16:49:00,
2013-12-26 10:54:00,14.3,9.5,30.22,South,190,0.0,0.0,81,0.00,-SN,,0.00,56.0,WeatherDisplay:10.37,2013-12-26 16:54:00,
2013-12-26 10:59:00,14.5,9.7,30.21,South,190,1.2,0.0,81,0.00,-SN,,0.00,35.0,WeatherDisplay:10.37,2013-12-26 16:59:00,
2013-12-26 11:04:00,14.7,9.9,30.22,SSE,153,2.3,0.0,81,0.00,OVC,,0.00,47.0,WeatherDisplay:10.37,2013-12-26 17:04:00,
2013-12-26 11:09:00,14.9,9.8,30.22,SSE,153,1.2,1.2,80,0.00,OVC,,0.00,46.0,WeatherDisplay:10.37,2013-12-26 17:09:00,
2013-12-26 11:14:00,15.0,10.2,30.22,SW,217,0.0,0.0,81,0.00,OVC,,0.00,44.0,WeatherDisplay:10.37,2013-12-26 17:14:00,
2013-12-26 11:20:00,15.2,10.1,30.22,SE,142,0.0,0.0,80,0.00,OVC,,0.00,46.0,WeatherDisplay:10.37,2013-12-26 17:20:00,
2013-12-26 11:25:00,15.2,10.1,30.22,West,268,1.2,1.2,80,0.00,OVC,,0.00,54.0,WeatherDisplay:10.37,2013-12-26 17:25:00,
2013-12-26 11:30:00,15.3,10.2,30.21,West,269,1.2,0.0,80,0.00,OVC,,0.00,65.0,WeatherDisplay:10.37,2013-12-26 17:30:00,
2013-12-26 11:35:00,15.3,10.5,30.21,SW,234,2.3,2.3,81,0.00,OVC,,0.00,58.0,WeatherDisplay:10.37,2013-12-26 17:35:00,
2013-12-26 11:40:00,15.2,10.1,30.21,SSW,211,0.0,0.0,80,0.00,OVC,,0.00,44.0,WeatherDisplay:10.37,2013-12-26 17:40:00,
2013-12-26 11:45:00,15.4,10.3,30.21,SW,230,1.2,1.2,80,0.00,OVC,,0.00,32.0,WeatherDisplay:10.37,2013-12-26 17:45:00,
2013-12-26 11:50:00,15.5,10.1,30.21,SSW,202,1.2,0.0,79,0.00,OVC,,0.00,97.0,WeatherDisplay:10.37,2013-12-26 17:50:00,
2013-12-26 11:55:00,15.7,10.6,30.21,SW,216,3.5,3.5,80,0.00,OVC,,0.00,104.0,WeatherDisplay:10.37,2013-12-26 17:55:00,
2013-12-26 12:00:00,15.7,10.3,30.21,SW,232,3.5,3.5,79,0.00,OVC,,0.00,47.0,WeatherDisplay:10.37,2013-12-26 18:00:00,
2013-12-26 12:05:00,15.5,10.4,30.21,SSE,160,1.2,1.2,80,0.00,-SN,,0.00,53.0,WeatherDisplay:10.37,2013-12-26 18:05:00,
2013-12-26 12:10:00,15.7,10.9,30.21,SSE,160,1.2,0.0,81,0.00,-SN,,0.00,65.0,WeatherDisplay:10.37,2013-12-26 18:10:00,
2013-12-26 12:15:00,15.9,10.8,30.21,WSW,257,2.0,2.2,80,0.00,-SN,,0.00,53.0,WeatherDisplay:10.37,2013-12-26 18:15:00,
2013-12-26 12:20:00,15.8,10.7,30.20,West,265,2.3,2.3,80,0.00,-SN,,0.00,54.0,WeatherDisplay:10.37,2013-12-26 18:20:00,
2013-12-26 12:25:00,15.6,10.5,30.21,SW,226,2.3,0.0,80,0.00,-SN,,0.00,63.0,WeatherDisplay:10.37,2013-12-26 18:25:00,
2013-12-26 12:30:00,15.8,11.0,30.20,SE,144,2.3,2.3,81,0.00,-SN,,0.00,56.0,WeatherDisplay:10.37,2013-12-26 18:30:00,
2013-12-26 12:35:00,16.0,10.9,30.20,SW,215,1.2,1.2,80,0.00,-SN,,0.00,65.0,WeatherDisplay:10.37,2013-12-26 18:35:00,
2013-12-26 12:40:00,16.2,11.1,30.20,SSE,148,2.3,2.3,80,0.00,-SN,,0.00,63.0,WeatherDisplay:10.37,2013-12-26 18:40:00,
2013-12-26 12:45:00,16.3,11.2,30.20,SSW,207,1.2,0.0,80,0.00,-SN,,0.00,53.0,WeatherDisplay:10.37,2013-12-26 18:45:00,
2013-12-26 12:50:00,16.4,11.3,30.20,SSE,167,1.2,1.2,80,0.00,-SN,,0.00,46.0,WeatherDisplay:10.37,2013-12-26 18:50:00,
2013-12-26 12:55:00,16.4,11.3,30.20,WSW,243,2.3,2.3,80,0.00,-SN,,0.00,46.0,WeatherDisplay:10.37,2013-12-26 18:55:00,
2013-12-26 13:00:00,16.6,11.5,30.20,SW,233,0.0,0.0,80,0.00,-SN,,0.00,49.0,WeatherDisplay:10.37,2013-12-26 19:00:00,
2013-12-26 13:08:00,16.8,11.7,30.20,SW,233,1.2,1.2,80,0.00,OVC,,0.00,39.0,WeatherDisplay:10.37,2013-12-26 19:08:00,
2013-12-26 13:13:00,16.7,11.6,30.20,SW,233,1.2,0.0,80,0.00,OVC,,0.00,40.0,WeatherDisplay:10.37,2013-12-26 19:13:00,
2013-12-26 13:18:00,16.7,11.9,30.19,SW,233,0.0,0.0,81,0.00,OVC,,0.00,37.0,WeatherDisplay:10.37,2013-12-26 19:18:00,
2013-12-26 13:23:00,17.0,12.2,30.19,SSE,157,1.2,1.2,81,0.00,OVC,,0.00,39.0,WeatherDisplay:10.37,2013-12-26 19:23:00,
2013-12-26 13:28:00,17.0,11.9,30.19,SSE,157,0.0,0.0,80,0.00,OVC,,0.00,40.0,WeatherDisplay:10.37,2013-12-26 19:28:00,
2013-12-26 13:33:00,16.8,11.4,30.19,SW,221,1.2,1.2,79,0.00,OVC,,0.00,46.0,WeatherDisplay:10.37,2013-12-26 19:33:00,
2013-12-26 13:38:00,17.0,12.2,30.19,SW,221,0.0,0.0,81,0.00,OVC,,0.00,47.0,WeatherDisplay:10.37,2013-12-26 19:38:00,
2013-12-26 13:43:00,17.2,12.1,30.19,SW,221,0.0,0.0,80,0.00,OVC,,0.00,44.0,WeatherDisplay:10.37,2013-12-26 19:43:00,
2013-12-26 13:48:00,17.3,12.2,30.19,SW,217,0.0,0.1,80,0.00,OVC,,0.00,37.0,WeatherDisplay:10.37,2013-12-26 19:48:00,
2013-12-26 13:52:00,17.3,12.2,30.19,WSW,244,1.2,0.0,80,0.00,OVC,,0.00,40.0,WeatherDisplay:10.37,2013-12-26 19:52:00,
2013-12-26 13:58:00,17.5,12.7,30.19,WSW,244,0.0,0.0,81,0.00,OVC,,0.00,44.0,WeatherDisplay:10.37,2013-12-26 19:58:00,
2013-12-26 14:03:00,17.6,12.5,30.19,WSW,244,1.2,0.0,80,0.00,OVC,,0.00,44.0,WeatherDisplay:10.37,2013-12-26 20:03:00,
2013-12-26 14:08:00,17.7,12.6,30.18,South,181,1.2,0.0,80,0.00,OVC,,0.00,39.0,WeatherDisplay:10.37,2013-12-26 20:08:00,
2013-12-26 14:13:00,17.8,12.7,30.18,South,171,2.3,0.0,80,0.00,OVC,,0.00,32.0,WeatherDisplay:10.37,2013-12-26 20:13:00,
2013-12-26 14:18:00,17.9,12.5,30.18,SSE,163,1.2,0.0,79,0.00,OVC,,0.00,35.0,WeatherDisplay:10.37,2013-12-26 20:18:00,
2013-12-26 14:23:00,17.9,12.8,30.18,SSE,163,1.2,0.0,80,0.00,OVC,,0.00,35.0,WeatherDisplay:10.37,2013-12-26 20:23:00,
2013-12-26 14:28:00,17.9,12.8,30.18,SSE,163,0.0,0.0,80,0.00,OVC,,0.00,32.0,WeatherDisplay:10.37,2013-12-26 20:28:00,
2013-12-26 14:33:00,17.7,12.6,30.18,SSE,163,2.3,2.3,80,0.00,OVC,,0.00,30.0,WeatherDisplay:10.37,2013-12-26 20:33:00,
2013-12-26 14:38:00,17.7,12.6,30.18,SSE,163,0.0,0.0,80,0.00,OVC,,0.00,28.0,WeatherDisplay:10.37,2013-12-26 20:38:00,
2013-12-26 14:43:00,17.5,12.4,30.18,SSE,163,0.0,0.0,80,0.00,OVC,,0.00,25.0,WeatherDisplay:10.37,2013-12-26 20:43:00,
2013-12-26 14:48:00,17.3,12.5,30.18,SSE,163,1.2,0.0,81,0.00,OVC,,0.00,23.0,WeatherDisplay:10.37,2013-12-26 20:48:00,
2013-12-26 14:53:00,17.4,12.8,30.18,SSE,163,0.0,0.0,82,0.00,OVC,,0.00,23.0,WeatherDisplay:10.37,2013-12-26 20:53:00,
2013-12-26 14:58:00,17.4,12.8,30.18,SSE,163,0.0,0.0,82,0.00,OVC,,0.00,19.0,WeatherDisplay:10.37,2013-12-26 20:58:00,
2013-12-26 15:03:00,17.4,12.8,30.18,SSW,192,1.2,0.0,82,0.00,OVC,,0.00,18.0,WeatherDisplay:10.37,2013-12-26 21:03:00,
2013-12-26 15:08:00,17.3,12.5,30.18,SSW,192,1.0,1.0,81,0.00,OVC,,0.00,14.0,WeatherDisplay:10.37,2013-12-26 21:08:00,
2013-12-26 15:13:00,17.3,12.7,30.18,SSW,192,0.0,0.0,82,0.00,OVC,,0.00,12.0,WeatherDisplay:10.37,2013-12-26 21:13:00,
2013-12-26 15:18:00,17.3,13.0,30.18,SSW,192,0.0,0.0,83,0.00,OVC,,0.00,12.0,WeatherDisplay:10.37,2013-12-26 21:18:00,
2013-12-26 15:23:00,17.4,13.1,30.19,SSW,192,0.0,0.0,83,0.00,OVC,,0.00,12.0,WeatherDisplay:10.37,2013-12-26 21:23:00,
2013-12-26 15:28:00,17.6,13.0,30.19,SSW,192,0.0,0.0,82,0.00,OVC,,0.00,11.0,WeatherDisplay:10.37,2013-12-26 21:28:00,
2013-12-26 15:33:00,17.7,13.1,30.19,SSW,192,0.0,0.0,82,0.00,OVC,,0.00,9.0,WeatherDisplay:10.37,2013-12-26 21:33:00,
2013-12-26 15:38:00,17.8,13.2,30.19,South,191,0.0,0.0,82,0.00,OVC,,0.00,7.0,WeatherDisplay:10.37,2013-12-26 21:38:00,
2013-12-26 15:43:00,17.8,13.2,30.19,SSW,192,0.0,0.0,82,0.00,OVC,,0.00,7.0,WeatherDisplay:10.37,2013-12-26 21:43:00,
2013-12-26 15:48:00,17.8,13.2,30.19,SSW,192,1.2,0.0,82,0.00,OVC,,0.00,5.0,WeatherDisplay:10.37,2013-12-26 21:48:00,
2013-12-26 15:53:00,17.7,13.1,30.20,SSW,192,0.0,0.0,82,0.00,OVC,,0.00,5.0,WeatherDisplay:10.37,2013-12-26 21:53:00,
2013-12-26 15:58:00,17.7,13.1,30.20,SSW,192,0.0,0.0,82,0.00,OVC,,0.00,0.0,WeatherDisplay:10.37,2013-12-26 21:58:00,
2013-12-26 16:03:00,17.7,13.4,30.20,SSW,192,0.0,0.0,83,0.00,OVC,,0.00,0.0,WeatherDisplay:10.37,2013-12-26 22:03:00,
2013-12-26 16:08:00,17.8,13.5,30.20,SSW,192,0.0,0.0,83,0.00,OVC,,0.00,0.0,WeatherDisplay:10.37,2013-12-26 22:08:00,
2013-12-26 16:13:00,17.9,13.6,30.20,SSW,192,0.0,0.0,83,0.00,OVC,,0.00,0.0,WeatherDisplay:10.37,2013-12-26 22:13:00,
2013-12-26 16:18:00,18.0,13.7,30.20,SSW,192,0.0,0.0,83,0.00,OVC,,0.00,0.0,WeatherDisplay:10.37,2013-12-26 22:18:00,
2013-12-26 16:23:00,18.2,13.9,30.20,SSW,192,0.0,0.0,83,0.00,OVC,,0.00,0.0,WeatherDisplay:10.37,2013-12-26 22:23:00,
2013-12-26 16:28:00,18.3,14.0,30.20,SSW,192,0.0,0.0,83,0.00,OVC,,0.00,0.0,WeatherDisplay:10.37,2013-12-26 22:28:00,
2013-12-26 16:33:00,18.4,14.1,30.21,South,191,0.0,0.0,83,0.00,OVC,,0.00,0.0,WeatherDisplay:10.37,2013-12-26 22:33:00,
2013-12-26 16:35:00,18.4,14.1,30.21,SSW,192,0.0,0.0,83,0.00,OVC,,0.00,0.0,WeatherDisplay:10.37,2013-12-26 22:35:00,
2013-12-26 16:40:00,18.4,14.1,30.21,SSW,192,0.0,0.0,83,0.00,OVC,,0.00,0.0,WeatherDisplay:10.37,2013-12-26 22:40:00,
2013-12-26 16:45:00,18.4,14.1,30.21,SSW,192,0.0,0.0,83,0.00,OVC,,0.00,0.0,WeatherDisplay:10.37,2013-12-26 22:45:00,
2013-12-26 16:50:00,18.5,14.2,30.21,SSW,192,0.0,0.0,83,0.00,OVC,,0.00,0.0,WeatherDisplay:10.37,2013-12-26 22:50:00,
2013-12-26 16:55:00,18.5,14.2,30.21,SSW,192,0.0,0.0,83,0.00,OVC,,0.00,0.0,WeatherDisplay:10.37,2013-12-26 22:55:00,
2013-12-26 17:00:00,18.5,14.2,30.21,SSW,192,0.0,0.0,83,0.00,OVC,,0.00,0.0,WeatherDisplay:10.37,2013-12-26 23:00:00,
2013-12-26 17:05:00,18.5,14.2,30.21,South,191,0.0,0.0,83,0.00,OVC,,0.00,0.0,WeatherDisplay:10.37,2013-12-26 23:05:00,
2013-12-26 17:10:00,18.5,14.2,30.22,SSW,192,0.0,0.0,83,0.00,OVC,,0.00,0.0,WeatherDisplay:10.37,2013-12-26 23:10:00,
2013-12-26 17:15:00,18.4,14.1,30.22,SSW,192,0.0,0.0,83,0.00,OVC,,0.00,0.0,WeatherDisplay:10.37,2013-12-26 23:15:00,
2013-12-26 17:20:00,18.4,14.1,30.22,SSW,192,0.0,0.0,83,0.00,OVC,,0.00,0.0,WeatherDisplay:10.37,2013-12-26 23:20:00,
2013-12-26 17:25:00,18.5,14.2,30.22,SSW,192,0.0,0.0,83,0.00,OVC,,0.00,0.0,WeatherDisplay:10.37,2013-12-26 23:25:00,
2013-12-26 17:30:00,18.6,14.3,30.22,SSW,192,0.0,0.0,83,0.00,OVC,,0.00,0.0,WeatherDisplay:10.37,2013-12-26 23:30:00,
2013-12-26 17:35:00,18.7,14.4,30.22,SSW,192,0.0,0.0,83,0.00,OVC,,0.00,0.0,WeatherDisplay:10.37,2013-12-26 23:35:00,
2013-12-26 17:36:00,18.7,14.4,30.22,SSW,192,0.0,0.0,83,0.00,OVC,,0.00,0.0,WeatherDisplay:10.37,2013-12-26 23:36:00,
2013-12-26 17:41:00,18.8,14.5,30.22,SSW,192,0.0,0.0,83,0.00,OVC,,0.00,0.0,WeatherDisplay:10.37,2013-12-26 23:41:00,
2013-12-26 17:43:00,18.8,14.5,30.22,SSW,192,0.0,0.0,83,0.00,OVC,,0.00,0.0,WeatherDisplay:10.37,2013-12-26 23:43:00,
2013-12-26 17:48:00,18.7,14.4,30.22,SSW,192,0.0,0.0,83,0.00,OVC,,0.00,0.0,WeatherDisplay:10.37,2013-12-26 23:48:00,
2013-12-26 17:49:00,18.6,14.3,30.22,South,191,0.0,0.0,83,0.00,OVC,,0.00,0.0,WeatherDisplay:10.37,2013-12-26 23:49:00,
2013-12-26 17:54:00,18.5,14.2,30.23,SSW,192,0.0,0.0,83,0.00,OVC,,0.00,0.0,WeatherDisplay:10.37,2013-12-26 23:54:00,
2013-12-26 17:59:00,18.4,14.4,30.23,SSW,192,0.0,0.0,84,0.00,OVC,,0.00,0.0,WeatherDisplay:10.37,2013-12-26 23:59:00,
2013-12-26 18:04:00,18.2,14.2,30.23,SSW,192,0.0,0.0,84,0.00,OVC,,0.00,0.0,WeatherDisplay:10.37,2013-12-27 00:04:00,
2013-12-26 18:09:00,18.1,14.1,30.24,SSW,192,0.0,0.0,84,0.00,OVC,,0.00,0.0,WeatherDisplay:10.37,2013-12-27 00:09:00,
2013-12-26 18:14:00,18.2,14.4,30.24,South,191,0.0,0.0,85,0.00,OVC,,0.00,0.0,WeatherDisplay:10.37,2013-12-27 00:14:00,
2013-12-26 18:19:00,18.2,14.2,30.24,SSW,192,0.0,0.0,84,0.00,OVC,,0.00,0.0,WeatherDisplay:10.37,2013-12-27 00:19:00,
2013-12-26 18:24:00,18.2,14.2,30.24,SSW,192,0.0,0.0,84,0.00,OVC,,0.00,0.0,WeatherDisplay:10.37,2013-12-27 00:24:00,
2013-12-26 18:29:00,18.3,14.3,30.24,SSW,192,0.0,0.0,84,0.00,OVC,,0.00,0.0,WeatherDisplay:10.37,2013-12-27 00:29:00,
2013-12-26 18:34:00,18.4,14.4,30.24,SSW,192,0.0,0.0,84,0.00,OVC,,0.00,0.0,WeatherDisplay:10.37,2013-12-27 00:34:00,
2013-12-26 18:39:00,18.5,14.7,30.24,SSW,192,0.0,0.0,85,0.00,OVC,,0.00,0.0,WeatherDisplay:10.37,2013-12-27 00:39:00,
2013-12-26 18:44:00,18.6,14.8,30.24,SSW,192,0.0,0.0,85,0.00,OVC,,0.00,0.0,WeatherDisplay:10.37,2013-12-27 00:44:00,
2013-12-26 18:49:00,18.6,14.6,30.25,SSW,192,0.0,0.0,84,0.00,OVC,,0.00,0.0,WeatherDisplay:10.37,2013-12-27 00:49:00,
2013-12-26 18:54:00,18.6,14.6,30.25,SSW,192,0.0,0.0,84,0.00,OVC,,0.00,0.0,WeatherDisplay:10.37,2013-12-27 00:54:00,
2013-12-26 18:59:00,18.4,14.4,30.25,SSW,192,0.0,0.0,84,0.00,OVC,,0.00,0.0,WeatherDisplay:10.37,2013-12-27 00:59:00,
2013-12-26 19:04:00,18.3,14.3,30.25,SSW,192,0.0,0.0,84,0.00,OVC,,0.00,0.0,WeatherDisplay:10.37,2013-12-27 01:04:00,
2013-12-26 19:09:00,18.3,14.5,30.25,SSW,192,0.0,0.0,85,0.00,OVC,,0.00,0.0,WeatherDisplay:10.37,2013-12-27 01:09:00,
2013-12-26 19:14:00,18.3,14.5,30.25,SSW,192,0.0,0.0,85,0.00,OVC,,0.00,0.0,WeatherDisplay:10.37,2013-12-27 01:14:00,
2013-12-26 19:19:00,18.4,14.6,30.25,SSW,192,0.0,0.0,85,0.00,OVC,,0.00,0.0,WeatherDisplay:10.37,2013-12-27 01:19:00,
2013-12-26 19:24:00,18.4,14.6,30.25,SSW,192,0.0,0.0,85,0.00,OVC,,0.00,0.0,WeatherDisplay:10.37,2013-12-27 01:24:00,
2013-12-26 19:29:00,18.5,14.5,30.25,South,191,0.0,0.0,84,0.00,OVC,,0.00,0.0,WeatherDisplay:10.37,2013-12-27 01:29:00,
2013-12-26 19:34:00,18.5,14.5,30.25,SSW,192,0.0,0.0,84,0.00,OVC,,0.00,0.0,WeatherDisplay:10.37,2013-12-27 01:34:00,
2013-12-26 19:39:00,18.5,14.5,30.26,SSW,192,0.0,0.0,84,0.00,OVC,,0.00,0.0,WeatherDisplay:10.37,2013-12-27 01:39:00,
2013-12-26 19:44:00,18.4,14.4,30.26,SSW,192,0.0,0.0,84,0.00,OVC,,0.00,0.0,WeatherDisplay:10.37,2013-12-27 01:44:00,
2013-12-26 19:49:00,18.4,14.4,30.26,SSW,192,0.0,0.0,84,0.00,OVC,,0.00,0.0,WeatherDisplay:10.37,2013-12-27 01:49:00,
2013-12-26 19:54:00,18.4,14.4,30.26,SSW,192,0.0,0.0,84,0.00,OVC,,0.00,0.0,WeatherDisplay:10.37,2013-12-27 01:54:00,
2013-12-26 19:59:00,18.4,14.4,30.26,SSW,192,0.0,0.0,84,0.00,OVC,,0.00,0.0,WeatherDisplay:10.37,2013-12-27 01:59:00,
2013-12-26 20:04:00,18.4,14.4,30.26,SSW,192,0.0,0.0,84,0.00,OVC,,0.00,0.0,WeatherDisplay:10.37,2013-12-27 02:04:00,
2013-12-26 20:09:00,18.4,14.4,30.26,SSW,192,0.0,0.0,84,0.00,OVC,,0.00,0.0,WeatherDisplay:10.37,2013-12-27 02:09:00,
2013-12-26 20:14:00,18.4,14.4,30.26,SSW,192,0.0,0.0,84,0.00,OVC,,0.00,0.0,WeatherDisplay:10.37,2013-12-27 02:14:00,
2013-12-26 20:19:00,18.4,14.4,30.25,SSW,192,0.0,0.0,84,0.00,OVC,,0.00,0.0,WeatherDisplay:10.37,2013-12-27 02:19:00,
2013-12-26 20:24:00,18.4,14.4,30.25,SSW,192,0.0,0.0,84,0.00,OVC,,0.00,0.0,WeatherDisplay:10.37,2013-12-27 02:24:00,
2013-12-26 20:29:00,18.4,14.4,30.25,SSW,192,0.0,0.0,84,0.00,OVC,,0.00,0.0,WeatherDisplay:10.37,2013-12-27 02:29:00,
2013-12-26 20:34:00,18.4,14.4,30.25,South,191,0.0,0.0,84,0.00,OVC,,0.00,0.0,WeatherDisplay:10.37,2013-12-27 02:34:00,
2013-12-26 20:39:00,18.2,13.9,30.25,SSW,192,0.0,0.0,83,0.00,OVC,,0.00,0.0,WeatherDisplay:10.37,2013-12-27 02:39:00,
2013-12-26 20:44:00,18.1,14.1,30.25,SSW,192,0.0,0.0,84,0.00,OVC,,0.00,0.0,WeatherDisplay:10.37,2013-12-27 02:44:00,
2013-12-26 20:49:00,17.9,13.9,30.25,SSW,192,0.0,0.0,84,0.00,OVC,,0.00,0.0,WeatherDisplay:10.37,2013-12-27 02:49:00,
2013-12-26 20:55:00,17.6,13.6,30.25,SSW,192,0.0,0.0,84,0.00,OVC,,0.00,0.0,WeatherDisplay:10.37,2013-12-27 02:55:00,
2013-12-26 21:00:00,17.3,13.3,30.25,SSW,192,0.0,0.0,84,0.00,OVC,,0.00,0.0,WeatherDisplay:10.37,2013-12-27 03:00:00,
2013-12-26 21:05:00,17.0,13.0,30.25,SSW,192,0.0,0.0,84,0.00,OVC,,0.00,0.0,WeatherDisplay:10.37,2013-12-27 03:05:00,
2013-12-26 21:10:00,16.4,12.7,30.25,SSW,192,0.0,0.0,85,0.00,OVC,,0.00,0.0,WeatherDisplay:10.37,2013-12-27 03:10:00,
2013-12-26 21:15:00,15.9,12.5,30.25,SSW,192,0.0,0.0,86,0.00,OVC,,0.00,0.0,WeatherDisplay:10.37,2013-12-27 03:15:00,
2013-12-26 21:20:00,15.6,12.2,30.25,SSW,192,0.0,0.0,86,0.00,OVC,,0.00,0.0,WeatherDisplay:10.37,2013-12-27 03:20:00,
2013-12-26 21:25:00,15.4,12.2,30.25,SSW,192,0.0,0.0,87,0.00,OVC,,0.00,0.0,WeatherDisplay:10.37,2013-12-27 03:25:00,
2013-12-26 21:30:00,15.4,12.2,30.25,SSW,192,0.0,0.0,87,0.00,OVC,,0.00,0.0,WeatherDisplay:10.37,2013-12-27 03:30:00,
2013-12-26 21:35:00,15.0,11.8,30.25,SSW,192,0.0,0.0,87,0.00,OVC,,0.00,0.0,WeatherDisplay:10.37,2013-12-27 03:35:00,
2013-12-26 21:40:00,14.8,11.6,30.25,SSW,192,0.0,0.0,87,0.00,OVC,,0.00,0.0,WeatherDisplay:10.37,2013-12-27 03:40:00,
2013-12-26 21:45:00,14.6,11.4,30.25,SSW,192,0.0,0.0,87,0.00,OVC,,0.00,0.0,WeatherDisplay:10.37,2013-12-27 03:45:00,
2013-12-26 21:50:00,14.4,11.2,30.25,SSW,192,0.0,0.0,87,0.00,OVC,,0.00,0.0,WeatherDisplay:10.37,2013-12-27 03:50:00,
2013-12-26 21:55:00,14.3,11.1,30.24,SSW,192,0.0,0.0,87,0.00,OVC,,0.00,0.0,WeatherDisplay:10.37,2013-12-27 03:55:00,
2013-12-26 22:00:00,14.3,11.1,30.25,SSW,192,0.0,0.0,87,0.00,OVC,,0.00,0.0,WeatherDisplay:10.37,2013-12-27 04:00:00,
2013-12-26 22:05:00,14.1,11.2,30.25,SSW,192,0.0,0.0,88,0.00,OVC,,0.00,0.0,WeatherDisplay:10.37,2013-12-27 04:05:00,
2013-12-26 22:10:00,14.0,11.1,30.25,SSW,192,0.0,0.0,88,0.00,OVC,,0.00,0.0,WeatherDisplay:10.37,2013-12-27 04:10:00,
2013-12-26 22:15:00,14.0,11.1,30.25,SSW,192,0.0,0.0,88,0.00,OVC,,0.00,0.0,WeatherDisplay:10.37,2013-12-27 04:15:00,
2013-12-26 22:20:00,14.0,11.1,30.25,SSW,192,0.0,0.0,88,0.00,BKN,,0.00,0.0,WeatherDisplay:10.37,2013-12-27 04:20:00,
2013-12-26 22:25:00,14.0,11.1,30.25,South,191,0.0,0.0,88,0.00,BKN,,0.00,0.0,WeatherDisplay:10.37,2013-12-27 04:25:00,
2013-12-26 22:30:00,14.0,11.1,30.25,SSW,192,0.0,0.0,88,0.00,BKN,,0.00,0.0,WeatherDisplay:10.37,2013-12-27 04:30:00,
2013-12-26 22:35:00,14.0,11.1,30.24,SSW,192,0.0,0.0,88,0.00,BKN,,0.00,0.0,WeatherDisplay:10.37,2013-12-27 04:35:00,
2013-12-26 22:40:00,14.1,11.2,30.25,SSW,192,0.0,0.0,88,0.00,BKN,,0.00,0.0,WeatherDisplay:10.37,2013-12-27 04:40:00,
2013-12-26 22:45:00,14.1,11.5,30.25,SSW,192,0.0,0.0,89,0.00,BKN,,0.00,0.0,WeatherDisplay:10.37,2013-12-27 04:45:00,
2013-12-26 22:50:00,14.1,11.5,30.25,South,191,0.0,0.0,89,0.00,BKN,,0.00,0.0,WeatherDisplay:10.37,2013-12-27 04:50:00,
2013-12-26 22:55:00,14.3,11.7,30.25,SSW,192,0.0,0.0,89,0.00,BKN,,0.00,0.0,WeatherDisplay:10.37,2013-12-27 04:55:00,
2013-12-26 23:00:00,14.4,11.8,30.26,SSW,192,0.0,0.0,89,0.00,BKN,,0.00,0.0,WeatherDisplay:10.37,2013-12-27 05:00:00,
2013-12-26 23:01:00,14.4,11.8,30.26,SSW,192,0.0,0.0,89,0.00,BKN,,0.00,0.0,WeatherDisplay:10.37,2013-12-27 05:01:00,
2013-12-26 23:02:00,14.4,11.8,30.25,SSW,192,0.0,0.0,89,0.00,BKN,,0.00,0.0,WeatherDisplay:10.37,2013-12-27 05:02:00,
2013-12-26 23:07:00,14.5,11.6,30.25,SSW,192,0.0,0.0,88,0.00,SCT,,0.00,0.0,WeatherDisplay:10.37,2013-12-27 05:07:00,
2013-12-26 23:12:00,14.7,11.8,30.25,SSW,192,0.0,0.0,88,0.00,SCT,,0.00,0.0,WeatherDisplay:10.37,2013-12-27 05:12:00,
2013-12-26 23:17:00,14.8,11.9,30.25,SSW,192,0.0,0.0,88,0.00,SCT,,0.00,0.0,WeatherDisplay:10.37,2013-12-27 05:17:00,
2013-12-26 23:22:00,14.9,12.0,30.26,SSW,192,0.0,0.0,88,0.00,SCT,,0.00,0.0,WeatherDisplay:10.37,2013-12-27 05:22:00,
2013-12-26 23:27:00,14.8,11.9,30.26,SSW,192,0.0,0.0,88,0.00,SCT,,0.00,0.0,WeatherDisplay:10.37,2013-12-27 05:27:00,
2013-12-26 23:32:00,15.0,12.1,30.26,SSW,192,0.0,0.0,88,0.00,SCT,,0.00,0.0,WeatherDisplay:10.37,2013-12-27 05:32:00,
2013-12-26 23:37:00,15.1,12.2,30.25,SSW,192,0.0,0.0,88,0.00,SCT,,0.00,0.0,WeatherDisplay:10.37,2013-12-27 05:37:00,
2013-12-26 23:42:00,15.1,12.2,30.25,SSW,192,0.0,0.0,88,0.00,SCT,,0.00,0.0,WeatherDisplay:10.37,2013-12-27 05:42:00,
2013-12-26 23:47:00,15.2,12.3,30.25,SSW,192,0.0,0.0,88,0.00,SCT,,0.00,0.0,WeatherDisplay:10.37,2013-12-27 05:47:00,
2013-12-26 23:52:00,15.3,12.4,30.25,SSW,192,0.0,0.0,88,0.00,SCT,,0.00,0.0,WeatherDisplay:10.37,2013-12-27 05:52:00,
2013-12-26 23:57:00,15.4,12.5,30.25,SSW,192,0.0,0.0,88,0.00,SCT,,0.00,0.0,WeatherDisplay:10.37,2013-12-27 05:57:00,